createdAt,value
2023-01-13T00:03:54.164Z,74.20
2023-01-13T00:08:56.086Z,73.40
2023-01-13T00:13:57.908Z,73.07
2023-01-13T00:18:59.484Z,72.73
2023-01-13T00:24:00.788Z,72.41
2023-01-13T00:29:02.330Z,71.95
2023-01-13T00:34:04.874Z,71.49
2023-01-13T00:39:06.771Z,71.22
2023-01-13T00:44:08.160Z,70.85
2023-01-13T00:49:09.742Z,70.68
2023-01-13T00:54:11.210Z,70.61
2023-01-13T01:17:39.481Z,70.72
2023-01-13T01:22:41.659Z,70.90
2023-01-13T01:27:43.603Z,70.72
2023-01-13T01:32:45.759Z,70.89
2023-01-13T01:37:47.944Z,70.42
2023-01-13T01:43:08.783Z,70.36
2023-01-13T01:48:11.421Z,69.99
2023-01-13T01:53:17.657Z,69.61
2023-01-13T01:58:28.766Z,69.61
2023-01-13T02:03:30.952Z,69.78
2023-01-13T02:08:33.211Z,69.56
2023-01-13T02:13:35.636Z,69.69
2023-01-13T02:19:07.608Z,69.63
2023-01-13T02:24:43.150Z,69.32
2023-01-13T02:30:19.934Z,69.22
2023-01-13T02:35:49.048Z,69.23
2023-01-13T02:41:20.536Z,68.95
2023-01-13T02:46:30.182Z,68.81
2023-01-13T02:51:33.901Z,68.50
2023-01-13T02:56:41.655Z,68.43
2023-01-13T03:01:43.609Z,68.40
2023-01-13T03:07:06.046Z,68.62
2023-01-13T03:12:32.127Z,68.59
2023-01-13T03:17:42.632Z,68.43
2023-01-13T03:23:01.281Z,68.49
2023-01-13T03:28:08.789Z,68.59
2023-01-13T03:33:29.126Z,68.52
2023-01-13T03:38:35.874Z,68.46
2023-01-13T03:44:03.438Z,68.50
2023-01-13T03:49:07.671Z,68.52
2023-01-13T03:54:12.829Z,68.43
2023-01-13T03:59:21.548Z,68.40
2023-01-13T04:04:33.200Z,68.29
2023-01-13T04:09:48.573Z,68.11
2023-01-13T04:14:52.177Z,68.04
2023-01-13T04:19:54.170Z,67.69
2023-01-13T04:24:56.146Z,67.46
2023-01-13T04:29:58.336Z,67.12
2023-01-13T04:35:00.373Z,67.08
2023-01-13T04:40:02.328Z,66.99
2023-01-13T04:45:04.670Z,66.90
2023-01-13T04:50:06.875Z,66.67
2023-01-13T04:55:09.420Z,66.47
2023-01-13T05:00:13.783Z,66.76
2023-01-13T05:05:15.741Z,66.73
2023-01-13T05:10:17.856Z,66.75
2023-01-13T05:15:38.531Z,66.75
2023-01-13T05:20:40.339Z,66.82
2023-01-13T05:25:44.558Z,66.88
2023-01-13T05:30:49.551Z,67.04
2023-01-13T05:35:51.807Z,66.93
2023-01-13T05:41:12.610Z,67.00
2023-01-13T05:46:15.132Z,66.72
2023-01-13T05:51:17.416Z,66.72
2023-01-13T05:56:19.543Z,66.68
2023-01-13T06:01:21.482Z,66.46
2023-01-13T06:06:23.912Z,66.43
2023-01-13T06:11:25.847Z,66.27
2023-01-13T06:16:27.793Z,66.11
2023-01-13T06:21:32.404Z,66.35
2023-01-13T06:27:40.954Z,66.43
2023-01-13T06:32:48.010Z,66.50
2023-01-13T06:38:49.706Z,66.43
2023-01-13T06:45:11.264Z,66.52
2023-01-13T06:50:33.127Z,66.44
2023-01-13T06:55:35.565Z,66.63
2023-01-13T07:00:37.759Z,66.77
2023-01-13T07:05:41.573Z,66.57
2023-01-13T07:10:43.574Z,66.79
2023-01-13T07:15:59.930Z,66.75
2023-01-13T07:21:05.128Z,66.56
2023-01-13T07:26:11.097Z,66.77
2023-01-13T07:31:19.181Z,66.74
2023-01-13T07:36:21.475Z,66.46
2023-01-13T07:41:42.524Z,66.16
2023-01-13T07:46:44.521Z,66.19
2023-01-13T07:51:46.801Z,65.81
2023-01-13T07:56:49.198Z,65.17
2023-01-13T08:01:53.450Z,65.37
2023-01-13T08:06:55.827Z,65.55
2023-01-13T08:12:16.741Z,65.12
2023-01-13T08:17:20.551Z,65.00
2023-01-13T08:22:23.049Z,65.10
2023-01-13T08:27:24.994Z,65.33
2023-01-13T08:32:27.186Z,65.51
2023-01-13T08:37:29.120Z,65.68
2023-01-13T08:42:31.249Z,65.58
2023-01-13T08:47:33.326Z,65.41
2023-01-13T08:52:36.744Z,65.45
2023-01-13T08:57:39.193Z,65.23
2023-01-13T09:02:41.111Z,65.71
2023-01-13T09:07:43.055Z,65.47
2023-01-13T09:13:04.119Z,66.16
2023-01-13T09:18:06.240Z,66.53
2023-01-13T09:23:10.749Z,65.58
2023-01-13T09:28:13.144Z,65.14
2023-01-13T09:33:33.841Z,63.98
2023-01-13T09:38:35.937Z,62.92
2023-01-13T09:43:55.482Z,61.94
2023-01-13T09:48:59.190Z,61.71
2023-01-13T09:54:11.403Z,61.40
2023-01-13T09:59:13.670Z,60.79
2023-01-13T10:04:16.010Z,60.97
2023-01-13T10:09:44.282Z,60.89
2023-01-13T10:14:51.620Z,61.14
2023-01-13T10:20:11.945Z,61.62
2023-01-13T10:25:20.690Z,61.54
2023-01-13T10:30:31.454Z,61.18
2023-01-13T10:35:55.627Z,60.76
2023-01-13T10:41:00.621Z,60.51
2023-01-13T10:46:06.202Z,60.31
2023-01-13T10:51:43.340Z,59.94
2023-01-13T10:56:46.333Z,59.71
2023-01-13T11:02:26.941Z,59.62
2023-01-13T11:07:50.643Z,59.88
2023-01-13T11:13:01.828Z,60.45
2023-01-13T11:18:18.716Z,60.82
2023-01-13T11:23:32.293Z,61.19
2023-01-13T11:28:49.487Z,60.46
2023-01-13T11:33:59.900Z,59.70
2023-01-13T11:39:55.658Z,59.15
2023-01-13T11:45:17.185Z,59.50
2023-01-13T11:50:27.574Z,59.89
2023-01-13T11:55:32.778Z,60.16
2023-01-13T12:01:02.987Z,60.27
2023-01-13T12:06:08.538Z,60.73
2023-01-13T12:11:21.785Z,60.99
2023-01-13T12:16:28.832Z,61.35
2023-01-13T12:21:38.065Z,61.86
2023-01-13T12:26:46.869Z,62.04
2023-01-13T12:31:50.323Z,62.04
2023-01-13T12:37:28.198Z,61.74
2023-01-13T12:43:13.586Z,61.65
2023-01-13T12:49:02.364Z,62.00
2023-01-13T12:54:42.644Z,61.89
2023-01-13T12:59:49.220Z,62.46
2023-01-13T13:04:54.747Z,63.15
2023-01-13T13:10:02.297Z,63.29
2023-01-13T13:15:14.075Z,63.19
2023-01-13T13:20:56.521Z,63.24
2023-01-13T13:26:20.316Z,63.40
2023-01-13T13:31:48.839Z,63.28
2023-01-13T13:37:04.572Z,63.35
2023-01-13T13:42:47.180Z,63.23
2023-01-13T13:47:49.060Z,63.27
2023-01-13T13:53:09.697Z,63.47
2023-01-13T13:58:17.487Z,63.41
2023-01-13T14:03:30.426Z,63.33
2023-01-13T14:08:52.502Z,63.46
2023-01-13T14:14:13.578Z,63.51
2023-01-13T14:19:36.386Z,63.66
2023-01-13T14:24:55.292Z,63.66
2023-01-13T14:30:00.322Z,63.61
2023-01-13T14:35:06.242Z,63.84
2023-01-13T14:40:30.398Z,63.98
2023-01-13T14:45:33.331Z,64.49
2023-01-13T14:50:35.378Z,64.82
2023-01-13T14:55:38.805Z,64.27
2023-01-13T15:00:40.584Z,63.93
2023-01-13T15:05:50.480Z,63.80
2023-01-13T15:11:06.026Z,63.84
2023-01-13T15:17:07.818Z,63.96
2023-01-13T15:22:29.816Z,64.03
2023-01-13T15:27:31.638Z,64.41
2023-01-13T15:32:33.771Z,64.50
2023-01-13T15:37:36.420Z,64.66
2023-01-13T15:42:57.139Z,64.72
2023-01-13T15:47:59.931Z,64.99
2023-01-13T15:53:03.659Z,65.39
2023-01-13T15:58:05.941Z,65.39
2023-01-13T16:03:13.806Z,65.82
2023-01-13T16:08:22.535Z,66.08
2023-01-13T16:13:25.002Z,66.32
2023-01-13T16:18:27.570Z,66.58
2023-01-13T16:23:29.506Z,66.83
2023-01-13T16:28:31.624Z,66.99
2023-01-13T16:34:33.568Z,67.07
2023-01-13T16:40:58.133Z,67.10
2023-01-13T16:46:39.862Z,67.23
2023-01-13T16:52:02.069Z,67.43
2023-01-13T16:57:04.113Z,67.50
2023-01-13T17:02:13.300Z,67.37
2023-01-13T17:07:16.804Z,67.33
2023-01-13T17:12:18.804Z,67.34
2023-01-13T17:17:26.542Z,67.42
2023-01-13T17:22:30.989Z,67.45
2023-01-13T17:27:33.697Z,67.49
2023-01-13T17:32:35.923Z,67.57
2023-01-13T17:37:38.228Z,67.50
2023-01-13T17:42:40.312Z,67.42
2023-01-13T17:47:42.498Z,67.75
2023-01-13T17:52:44.494Z,68.98
2023-01-13T17:58:46.367Z,70.28
2023-01-13T18:03:54.691Z,72.38
2023-01-13T18:08:59.091Z,74.00
2023-01-13T18:14:01.141Z,75.11
2023-01-13T18:19:22.164Z,75.43
2023-01-13T18:24:43.091Z,75.92
2023-01-13T18:29:50.767Z,76.77
2023-01-13T18:35:01.756Z,77.98
2023-01-13T18:40:11.178Z,79.38
2023-01-13T18:45:13.161Z,79.62
2023-01-13T18:50:17.331Z,80.20
2023-01-13T18:55:19.765Z,80.62
2023-01-13T19:00:23.007Z,80.93
2023-01-13T19:05:25.210Z,81.66
2023-01-13T19:10:32.033Z,82.23
2023-01-13T19:15:36.756Z,82.54
2023-01-13T19:20:38.900Z,82.87
2023-01-13T19:25:41.121Z,83.01
2023-01-13T19:30:43.119Z,83.06
2023-01-13T19:35:45.203Z,83.21
2023-01-13T19:40:58.688Z,83.58
2023-01-13T19:47:00.437Z,84.18
2023-01-13T19:52:22.389Z,84.07
2023-01-13T19:57:25.746Z,84.09
2023-01-13T20:02:28.496Z,84.09
2023-01-13T20:07:31.615Z,84.23
2023-01-13T20:12:33.885Z,84.01
2023-01-13T20:17:36.495Z,84.12
2023-01-13T20:22:40.214Z,84.05
2023-01-13T20:27:42.785Z,84.10
2023-01-13T20:32:44.875Z,84.00
2023-01-13T20:37:47.169Z,83.93
2023-01-13T20:42:52.091Z,84.01
2023-01-13T20:47:55.444Z,84.10
2023-01-13T22:01:36.866Z,75.25
2023-01-13T22:07:26.204Z,77.64
2023-01-13T22:14:31.421Z,79.49
2023-01-13T22:20:02.960Z,80.40
2023-01-13T22:25:46.006Z,80.71
2023-01-13T22:31:27.504Z,80.87
2023-01-13T22:36:36.363Z,81.16
2023-01-13T22:42:58.056Z,80.99
2023-01-13T22:48:59.062Z,81.03
2023-01-13T22:54:11.343Z,81.00
2023-01-13T22:59:49.438Z,80.97
2023-01-13T23:05:30.700Z,80.91
2023-01-13T23:11:35.536Z,80.92
2023-01-13T23:17:55.809Z,80.69
2023-01-13T23:23:17.134Z,80.71
2023-01-13T23:29:18.528Z,80.51
2023-01-13T23:35:34.424Z,80.56
2023-01-13T23:42:04.953Z,80.47
2023-01-13T23:48:27.379Z,80.52
2023-01-13T23:54:58.195Z,80.52
